McCullers, North Carolina
Current Conditions -  °F | °C
As of 8:51 PM on Thursday 20 Nov 2014 (Local Time) from KRDU Reporting Station
Clear Clear  
Wind Chill: 46°   Ceiling: Unl
Heat Index: 46°   Visibility: 10mi
Dew Point: 27°   Wind: 3mph
Humidity: 47%   Direction: 280°W
Pressure: 30.1"   Gusts: NA
Location:  35.6675°N, 78.6629°W
Report Text: KRDU 210151Z 28003KT 10SM CLR 08/M03 A3010 RMK AO2 SLP195 T00781028 $
Loading
Personal Weather Stations






























Interactive Weather Map New forecast layout! Learn more

10-Day Weather Forecast

Advertisements
Track Severe Weather on mobile